sensor_id;sensor_type;location;lat;lon;timestamp;temperature;humidity
5392;DHT22;2719;53.624;9.786;2022-09-06T00:01:07;18.40;97.90
5392;DHT22;2719;53.624;9.786;2022-09-06T00:03:34;18.30;98.00
5392;DHT22;2719;53.624;9.786;2022-09-06T00:06:06;18.40;98.00
5392;DHT22;2719;53.624;9.786;2022-09-06T00:08:33;18.30;98.00
5392;DHT22;2719;53.624;9.786;2022-09-06T00:11:00;18.30;98.20
5392;DHT22;2719;53.624;9.786;2022-09-06T00:13:26;18.30;98.10
5392;DHT22;2719;53.624;9.786;2022-09-06T00:15:53;18.30;98.10
5392;DHT22;2719;53.624;9.786;2022-09-06T00:18:20;18.30;98.10
5392;DHT22;2719;53.624;9.786;2022-09-06T00:20:47;18.30;98.00
5392;DHT22;2719;53.624;9.786;2022-09-06T00:23:15;18.30;98.00
5392;DHT22;2719;53.624;9.786;2022-09-06T00:25:41;18.20;98.10
5392;DHT22;2719;53.624;9.786;2022-09-06T00:28:08;18.30;98.10
5392;DHT22;2719;53.624;9.786;2022-09-06T00:30:35;18.30;98.00
5392;DHT22;2719;53.624;9.786;2022-09-06T00:33:02;18.20;98.10
5392;DHT22;2719;53.624;9.786;2022-09-06T00:35:29;18.30;98.10
5392;DHT22;2719;53.624;9.786;2022-09-06T00:37:56;18.30;97.90
5392;DHT22;2719;53.624;9.786;2022-09-06T00:40:25;18.20;98.00
5392;DHT22;2719;53.624;9.786;2022-09-06T00:42:54;18.10;98.10
5392;DHT22;2719;53.624;9.786;2022-09-06T00:45:21;18.20;98.00
5392;DHT22;2719;53.624;9.786;2022-09-06T00:47:48;18.20;98.10
5392;DHT22;2719;53.624;9.786;2022-09-06T00:50:16;18.20;98.00
5392;DHT22;2719;53.624;9.786;2022-09-06T00:52:46;18.20;98.10
5392;DHT22;2719;53.624;9.786;2022-09-06T00:55:13;18.20;97.90
5392;DHT22;2719;53.624;9.786;2022-09-06T00:57:42;18.30;97.90
5392;DHT22;2719;53.624;9.786;2022-09-06T01:00:11;18.20;97.80
5392;DHT22;2719;53.624;9.786;2022-09-06T01:02:40;18.10;98.20
5392;DHT22;2719;53.624;9.786;2022-09-06T01:05:08;18.10;98.00
5392;DHT22;2719;53.624;9.786;2022-09-06T01:07:47;18.20;98.00
5392;DHT22;2719;53.624;9.786;2022-09-06T01:10:32;18.20;98.10
5392;DHT22;2719;53.624;9.786;2022-09-06T01:13:13;18.20;98.00
5392;DHT22;2719;53.624;9.786;2022-09-06T01:15:55;18.10;97.90
5392;DHT22;2719;53.624;9.786;2022-09-06T01:18:35;18.00;98.20
5392;DHT22;2719;53.624;9.786;2022-09-06T01:21:14;18.00;98.10
5392;DHT22;2719;53.624;9.786;2022-09-06T01:30:01;18.00;98.10
5392;DHT22;2719;53.624;9.786;2022-09-06T01:32:31;18.00;98.00
5392;DHT22;2719;53.624;9.786;2022-09-06T01:35:05;18.00;98.00
5392;DHT22;2719;53.624;9.786;2022-09-06T01:37:32;18.00;98.00
5392;DHT22;2719;53.624;9.786;2022-09-06T01:39:59;18.00;97.90
5392;DHT22;2719;53.624;9.786;2022-09-06T01:42:28;17.90;97.90
5392;DHT22;2719;53.624;9.786;2022-09-06T01:44:59;18.00;98.30
5392;DHT22;2719;53.624;9.786;2022-09-06T01:47:36;17.90;97.70
5392;DHT22;2719;53.624;9.786;2022-09-06T01:50:26;17.90;98.00
5392;DHT22;2719;53.624;9.786;2022-09-06T01:53:05;17.90;97.70
5392;DHT22;2719;53.624;9.786;2022-09-06T01:55:42;17.80;97.80
5392;DHT22;2719;53.624;9.786;2022-09-06T01:58:24;17.80;97.70
5392;DHT22;2719;53.624;9.786;2022-09-06T02:01:00;17.80;97.70
5392;DHT22;2719;53.624;9.786;2022-09-06T02:03:33;17.90;97.70
5392;DHT22;2719;53.624;9.786;2022-09-06T02:06:06;17.90;97.70
5392;DHT22;2719;53.624;9.786;2022-09-06T02:08:36;17.80;97.60
5392;DHT22;2719;53.624;9.786;2022-09-06T02:11:05;17.80;97.70
5392;DHT22;2719;53.624;9.786;2022-09-06T02:13:37;17.80;97.60
5392;DHT22;2719;53.624;9.786;2022-09-06T02:16:07;17.70;97.50
5392;DHT22;2719;53.624;9.786;2022-09-06T02:18:42;17.70;97.50
5392;DHT22;2719;53.624;9.786;2022-09-06T02:21:13;17.70;97.40
5392;DHT22;2719;53.624;9.786;2022-09-06T02:23:41;17.60;97.40
5392;DHT22;2719;53.624;9.786;2022-09-06T02:26:11;17.60;97.30
5392;DHT22;2719;53.624;9.786;2022-09-06T02:28:39;17.70;97.50
5392;DHT22;2719;53.624;9.786;2022-09-06T02:31:11;17.70;97.60
5392;DHT22;2719;53.624;9.786;2022-09-06T02:33:44;17.60;97.30
5392;DHT22;2719;53.624;9.786;2022-09-06T02:36:11;17.60;97.20
5392;DHT22;2719;53.624;9.786;2022-09-06T02:38:40;17.70;97.20
5392;DHT22;2719;53.624;9.786;2022-09-06T02:41:08;17.70;97.30
5392;DHT22;2719;53.624;9.786;2022-09-06T02:43:35;17.60;97.20
5392;DHT22;2719;53.624;9.786;2022-09-06T02:46:02;17.60;97.10
5392;DHT22;2719;53.624;9.786;2022-09-06T02:48:30;17.50;96.80
5392;DHT22;2719;53.624;9.786;2022-09-06T02:51:00;17.50;96.80
5392;DHT22;2719;53.624;9.786;2022-09-06T02:53:27;17.50;97.00
5392;DHT22;2719;53.624;9.786;2022-09-06T02:55:53;17.50;97.00
5392;DHT22;2719;53.624;9.786;2022-09-06T02:58:21;17.50;96.70
5392;DHT22;2719;53.624;9.786;2022-09-06T03:00:48;17.50;96.80
5392;DHT22;2719;53.624;9.786;2022-09-06T03:03:15;17.60;96.80
5392;DHT22;2719;53.624;9.786;2022-09-06T03:05:46;17.60;96.80
5392;DHT22;2719;53.624;9.786;2022-09-06T03:08:14;17.60;96.60
5392;DHT22;2719;53.624;9.786;2022-09-06T03:10:47;17.60;96.70
5392;DHT22;2719;53.624;9.786;2022-09-06T03:13:14;17.50;96.40
5392;DHT22;2719;53.624;9.786;2022-09-06T03:15:40;17.50;96.40
5392;DHT22;2719;53.624;9.786;2022-09-06T03:18:07;17.40;96.30
5392;DHT22;2719;53.624;9.786;2022-09-06T03:20:34;17.40;96.30
5392;DHT22;2719;53.624;9.786;2022-09-06T03:23:02;17.40;96.30
5392;DHT22;2719;53.624;9.786;2022-09-06T03:25:29;17.40;96.10
5392;DHT22;2719;53.624;9.786;2022-09-06T03:27:55;17.40;96.10
5392;DHT22;2719;53.624;9.786;2022-09-06T03:30:22;17.50;95.90
5392;DHT22;2719;53.624;9.786;2022-09-06T03:32:48;17.40;95.90
5392;DHT22;2719;53.624;9.786;2022-09-06T03:35:15;17.50;95.80
5392;DHT22;2719;53.624;9.786;2022-09-06T03:37:42;17.40;95.70
5392;DHT22;2719;53.624;9.786;2022-09-06T03:40:10;17.40;95.70
5392;DHT22;2719;53.624;9.786;2022-09-06T03:42:37;17.40;95.50
5392;DHT22;2719;53.624;9.786;2022-09-06T03:45:04;17.30;95.60
5392;DHT22;2719;53.624;9.786;2022-09-06T03:47:31;17.30;95.60
5392;DHT22;2719;53.624;9.786;2022-09-06T03:49:58;17.40;95.80
5392;DHT22;2719;53.624;9.786;2022-09-06T03:52:25;17.40;95.50
5392;DHT22;2719;53.624;9.786;2022-09-06T03:54:51;17.40;95.60
5392;DHT22;2719;53.624;9.786;2022-09-06T03:57:19;17.40;95.30
5392;DHT22;2719;53.624;9.786;2022-09-06T03:59:46;17.40;95.20
5392;DHT22;2719;53.624;9.786;2022-09-06T04:02:13;17.40;95.20
5392;DHT22;2719;53.624;9.786;2022-09-06T04:04:39;17.30;95.10
5392;DHT22;2719;53.624;9.786;2022-09-06T04:07:06;17.40;95.20
5392;DHT22;2719;53.624;9.786;2022-09-06T04:09:32;17.40;95.10
5392;DHT22;2719;53.624;9.786;2022-09-06T04:11:59;17.30;94.80
5392;DHT22;2719;53.624;9.786;2022-09-06T04:14:27;17.40;94.80
5392;DHT22;2719;53.624;9.786;2022-09-06T04:16:54;17.30;95.10
5392;DHT22;2719;53.624;9.786;2022-09-06T04:19:20;17.30;94.60
5392;DHT22;2719;53.624;9.786;2022-09-06T04:21:48;17.30;94.60
5392;DHT22;2719;53.624;9.786;2022-09-06T04:24:14;17.40;94.90
5392;DHT22;2719;53.624;9.786;2022-09-06T04:26:41;17.30;94.60
5392;DHT22;2719;53.624;9.786;2022-09-06T04:29:08;17.30;94.50
5392;DHT22;2719;53.624;9.786;2022-09-06T04:31:36;17.30;94.20
5392;DHT22;2719;53.624;9.786;2022-09-06T04:34:03;17.10;93.90
5392;DHT22;2719;53.624;9.786;2022-09-06T04:36:29;17.20;94.30
5392;DHT22;2719;53.624;9.786;2022-09-06T04:38:56;17.20;94.00
5392;DHT22;2719;53.624;9.786;2022-09-06T04:41:23;17.20;93.90
5392;DHT22;2719;53.624;9.786;2022-09-06T04:43:49;17.20;94.00
5392;DHT22;2719;53.624;9.786;2022-09-06T04:46:19;17.20;93.90
5392;DHT22;2719;53.624;9.786;2022-09-06T04:48:48;17.20;93.80
5392;DHT22;2719;53.624;9.786;2022-09-06T04:51:15;17.10;93.60
5392;DHT22;2719;53.624;9.786;2022-09-06T04:53:41;17.10;93.80
5392;DHT22;2719;53.624;9.786;2022-09-06T04:56:12;17.20;93.70
5392;DHT22;2719;53.624;9.786;2022-09-06T04:58:40;17.20;93.70
5392;DHT22;2719;53.624;9.786;2022-09-06T05:01:07;17.10;93.70
5392;DHT22;2719;53.624;9.786;2022-09-06T05:03:33;17.10;93.40
5392;DHT22;2719;53.624;9.786;2022-09-06T05:06:09;17.00;93.30
5392;DHT22;2719;53.624;9.786;2022-09-06T05:08:37;17.00;93.60
5392;DHT22;2719;53.624;9.786;2022-09-06T05:11:04;17.00;93.50
5392;DHT22;2719;53.624;9.786;2022-09-06T05:13:31;17.10;93.50
5392;DHT22;2719;53.624;9.786;2022-09-06T05:16:00;17.00;93.10
5392;DHT22;2719;53.624;9.786;2022-09-06T05:18:27;17.00;93.10
5392;DHT22;2719;53.624;9.786;2022-09-06T05:20:54;17.00;93.10
5392;DHT22;2719;53.624;9.786;2022-09-06T05:23:22;17.00;93.10
5392;DHT22;2719;53.624;9.786;2022-09-06T05:25:49;17.00;93.10
5392;DHT22;2719;53.624;9.786;2022-09-06T05:28:16;17.00;93.20
5392;DHT22;2719;53.624;9.786;2022-09-06T05:30:43;17.00;93.70
5392;DHT22;2719;53.624;9.786;2022-09-06T05:33:12;17.00;92.90
5392;DHT22;2719;53.624;9.786;2022-09-06T05:35:39;17.10;93.00
5392;DHT22;2719;53.624;9.786;2022-09-06T05:38:05;17.10;93.00
5392;DHT22;2719;53.624;9.786;2022-09-06T05:40:33;17.10;93.10
5392;DHT22;2719;53.624;9.786;2022-09-06T05:43:00;17.10;92.90
5392;DHT22;2719;53.624;9.786;2022-09-06T05:45:26;17.00;92.50
5392;DHT22;2719;53.624;9.786;2022-09-06T05:47:53;17.00;92.60
5392;DHT22;2719;53.624;9.786;2022-09-06T05:50:20;17.00;92.90
5392;DHT22;2719;53.624;9.786;2022-09-06T05:52:46;17.10;92.80
5392;DHT22;2719;53.624;9.786;2022-09-06T05:55:13;17.10;92.90
5392;DHT22;2719;53.624;9.786;2022-09-06T05:57:41;17.10;93.00
5392;DHT22;2719;53.624;9.786;2022-09-06T06:00:09;17.20;92.60
5392;DHT22;2719;53.624;9.786;2022-09-06T06:02:36;17.20;92.60
5392;DHT22;2719;53.624;9.786;2022-09-06T06:05:04;17.20;92.50
5392;DHT22;2719;53.624;9.786;2022-09-06T06:07:31;17.20;92.60
5392;DHT22;2719;53.624;9.786;2022-09-06T06:09:57;17.30;92.60
5392;DHT22;2719;53.624;9.786;2022-09-06T06:12:24;17.20;92.50
5392;DHT22;2719;53.624;9.786;2022-09-06T06:14:52;17.30;93.10
5392;DHT22;2719;53.624;9.786;2022-09-06T06:17:19;17.30;92.50
5392;DHT22;2719;53.624;9.786;2022-09-06T06:19:46;17.30;92.20
5392;DHT22;2719;53.624;9.786;2022-09-06T06:22:12;17.40;92.30
5392;DHT22;2719;53.624;9.786;2022-09-06T06:24:39;17.30;92.30
5392;DHT22;2719;53.624;9.786;2022-09-06T06:27:06;17.40;92.50
5392;DHT22;2719;53.624;9.786;2022-09-06T06:29:32;17.30;92.50
5392;DHT22;2719;53.624;9.786;2022-09-06T06:32:01;17.30;92.40
5392;DHT22;2719;53.624;9.786;2022-09-06T06:34:27;17.20;92.10
5392;DHT22;2719;53.624;9.786;2022-09-06T06:36:54;17.20;92.50
5392;DHT22;2719;53.624;9.786;2022-09-06T06:39:21;17.20;92.50
5392;DHT22;2719;53.624;9.786;2022-09-06T06:41:48;17.30;92.40
5392;DHT22;2719;53.624;9.786;2022-09-06T06:44:15;17.30;92.50
5392;DHT22;2719;53.624;9.786;2022-09-06T06:46:41;17.40;92.60
5392;DHT22;2719;53.624;9.786;2022-09-06T06:49:09;17.50;92.60
5392;DHT22;2719;53.624;9.786;2022-09-06T06:51:36;17.30;92.10
5392;DHT22;2719;53.624;9.786;2022-09-06T06:54:03;17.40;92.50
5392;DHT22;2719;53.624;9.786;2022-09-06T06:56:32;17.50;92.80
5392;DHT22;2719;53.624;9.786;2022-09-06T06:59:01;17.50;92.70
5392;DHT22;2719;53.624;9.786;2022-09-06T07:01:30;17.50;92.70
5392;DHT22;2719;53.624;9.786;2022-09-06T07:03:57;17.60;92.70
5392;DHT22;2719;53.624;9.786;2022-09-06T07:06:26;17.60;92.20
5392;DHT22;2719;53.624;9.786;2022-09-06T07:08:55;17.70;92.40
5392;DHT22;2719;53.624;9.786;2022-09-06T07:11:23;17.80;92.40
5392;DHT22;2719;53.624;9.786;2022-09-06T07:13:49;17.80;92.20
5392;DHT22;2719;53.624;9.786;2022-09-06T07:16:18;17.70;91.80
5392;DHT22;2719;53.624;9.786;2022-09-06T07:18:45;17.80;92.40
5392;DHT22;2719;53.624;9.786;2022-09-06T07:21:13;17.70;92.10
5392;DHT22;2719;53.624;9.786;2022-09-06T07:23:41;17.70;92.30
5392;DHT22;2719;53.624;9.786;2022-09-06T07:26:12;17.70;92.20
5392;DHT22;2719;53.624;9.786;2022-09-06T07:28:39;17.70;92.20
5392;DHT22;2719;53.624;9.786;2022-09-06T07:31:06;17.60;92.50
5392;DHT22;2719;53.624;9.786;2022-09-06T07:33:33;17.70;92.70
5392;DHT22;2719;53.624;9.786;2022-09-06T07:36:02;17.60;92.60
5392;DHT22;2719;53.624;9.786;2022-09-06T07:38:29;17.70;92.70
5392;DHT22;2719;53.624;9.786;2022-09-06T07:40:59;17.70;92.70
5392;DHT22;2719;53.624;9.786;2022-09-06T07:43:27;17.80;92.90
5392;DHT22;2719;53.624;9.786;2022-09-06T07:45:58;17.80;94.20
5392;DHT22;2719;53.624;9.786;2022-09-06T07:48:27;17.90;94.10
5392;DHT22;2719;53.624;9.786;2022-09-06T07:50:54;17.90;95.00
5392;DHT22;2719;53.624;9.786;2022-09-06T07:53:20;17.90;93.20
5392;DHT22;2719;53.624;9.786;2022-09-06T07:55:47;17.80;92.70
5392;DHT22;2719;53.624;9.786;2022-09-06T07:58:15;17.90;93.00
5392;DHT22;2719;53.624;9.786;2022-09-06T08:00:41;17.80;93.00
5392;DHT22;2719;53.624;9.786;2022-09-06T08:03:08;17.80;93.30
5392;DHT22;2719;53.624;9.786;2022-09-06T08:05:35;17.80;94.10
5392;DHT22;2719;53.624;9.786;2022-09-06T08:08:02;17.80;93.80
5392;DHT22;2719;53.624;9.786;2022-09-06T08:10:28;17.90;93.50
5392;DHT22;2719;53.624;9.786;2022-09-06T08:12:55;18.00;93.60
5392;DHT22;2719;53.624;9.786;2022-09-06T08:15:23;18.00;94.10
5392;DHT22;2719;53.624;9.786;2022-09-06T08:17:50;18.10;94.30
5392;DHT22;2719;53.624;9.786;2022-09-06T08:20:17;18.10;93.70
5392;DHT22;2719;53.624;9.786;2022-09-06T08:22:43;18.00;93.50
5392;DHT22;2719;53.624;9.786;2022-09-06T08:25:10;18.10;93.50
5392;DHT22;2719;53.624;9.786;2022-09-06T08:27:37;18.00;93.50
5392;DHT22;2719;53.624;9.786;2022-09-06T08:30:04;18.00;94.10
5392;DHT22;2719;53.624;9.786;2022-09-06T08:32:33;18.10;93.70
5392;DHT22;2719;53.624;9.786;2022-09-06T08:35:03;18.10;94.00
5392;DHT22;2719;53.624;9.786;2022-09-06T08:37:30;18.00;93.60
5392;DHT22;2719;53.624;9.786;2022-09-06T08:39:56;18.00;93.80
5392;DHT22;2719;53.624;9.786;2022-09-06T08:42:23;18.00;94.80
5392;DHT22;2719;53.624;9.786;2022-09-06T08:44:51;18.00;94.00
5392;DHT22;2719;53.624;9.786;2022-09-06T08:47:20;18.10;94.10
5392;DHT22;2719;53.624;9.786;2022-09-06T08:49:50;18.10;94.30
5392;DHT22;2719;53.624;9.786;2022-09-06T08:52:37;18.10;94.00
5392;DHT22;2719;53.624;9.786;2022-09-06T08:55:18;18.10;94.40
5392;DHT22;2719;53.624;9.786;2022-09-06T08:58:00;18.10;94.20
5392;DHT22;2719;53.624;9.786;2022-09-06T09:00:32;18.10;94.60
5392;DHT22;2719;53.624;9.786;2022-09-06T09:03:05;18.20;94.50
5392;DHT22;2719;53.624;9.786;2022-09-06T09:05:35;18.10;94.10
5392;DHT22;2719;53.624;9.786;2022-09-06T09:08:06;18.10;94.10
5392;DHT22;2719;53.624;9.786;2022-09-06T09:10:41;18.20;94.50
5392;DHT22;2719;53.624;9.786;2022-09-06T09:13:17;18.10;94.40
5392;DHT22;2719;53.624;9.786;2022-09-06T09:15:45;18.20;94.50
5392;DHT22;2719;53.624;9.786;2022-09-06T09:18:13;18.20;94.70
5392;DHT22;2719;53.624;9.786;2022-09-06T09:20:42;18.20;94.80
5392;DHT22;2719;53.624;9.786;2022-09-06T09:23:09;18.20;94.60
5392;DHT22;2719;53.624;9.786;2022-09-06T09:25:38;18.10;94.80
5392;DHT22;2719;53.624;9.786;2022-09-06T09:28:13;18.20;95.00
5392;DHT22;2719;53.624;9.786;2022-09-06T09:30:46;18.20;95.30
5392;DHT22;2719;53.624;9.786;2022-09-06T09:33:25;18.30;95.20
5392;DHT22;2719;53.624;9.786;2022-09-06T09:35:54;18.30;94.80
5392;DHT22;2719;53.624;9.786;2022-09-06T09:38:23;18.30;95.10
5392;DHT22;2719;53.624;9.786;2022-09-06T09:40:52;18.30;95.30
5392;DHT22;2719;53.624;9.786;2022-09-06T09:43:21;18.30;95.40
5392;DHT22;2719;53.624;9.786;2022-09-06T09:46:15;18.30;95.30
5392;DHT22;2719;53.624;9.786;2022-09-06T09:48:46;18.40;95.50
5392;DHT22;2719;53.624;9.786;2022-09-06T09:51:27;18.40;95.50
5392;DHT22;2719;53.624;9.786;2022-09-06T09:53:55;18.40;95.30
5392;DHT22;2719;53.624;9.786;2022-09-06T09:56:32;18.40;95.50
5392;DHT22;2719;53.624;9.786;2022-09-06T09:59:00;18.40;95.60
5392;DHT22;2719;53.624;9.786;2022-09-06T10:01:29;18.40;95.60
5392;DHT22;2719;53.624;9.786;2022-09-06T10:04:01;18.50;95.60
5392;DHT22;2719;53.624;9.786;2022-09-06T10:06:30;18.40;95.50
5392;DHT22;2719;53.624;9.786;2022-09-06T10:08:57;18.40;95.80
5392;DHT22;2719;53.624;9.786;2022-09-06T10:11:38;18.40;95.60
5392;DHT22;2719;53.624;9.786;2022-09-06T10:14:16;18.40;95.80
5392;DHT22;2719;53.624;9.786;2022-09-06T10:16:45;18.40;96.00
5392;DHT22;2719;53.624;9.786;2022-09-06T10:19:37;18.50;95.90
5392;DHT22;2719;53.624;9.786;2022-09-06T10:22:17;18.40;95.60
5392;DHT22;2719;53.624;9.786;2022-09-06T10:27:46;18.40;95.70
5392;DHT22;2719;53.624;9.786;2022-09-06T10:30:15;18.40;95.70
5392;DHT22;2719;53.624;9.786;2022-09-06T10:32:47;18.40;95.90
5392;DHT22;2719;53.624;9.786;2022-09-06T10:35:19;18.40;96.00
5392;DHT22;2719;53.624;9.786;2022-09-06T10:38:01;18.50;96.40
5392;DHT22;2719;53.624;9.786;2022-09-06T10:40:35;18.50;96.10
5392;DHT22;2719;53.624;9.786;2022-09-06T10:43:07;18.50;95.80
5392;DHT22;2719;53.624;9.786;2022-09-06T10:45:56;18.60;96.50
5392;DHT22;2719;53.624;9.786;2022-09-06T10:48:26;18.60;97.00
5392;DHT22;2719;53.624;9.786;2022-09-06T10:50:57;18.60;96.10
5392;DHT22;2719;53.624;9.786;2022-09-06T10:53:38;18.60;95.90
5392;DHT22;2719;53.624;9.786;2022-09-06T10:56:09;18.60;95.80
5392;DHT22;2719;53.624;9.786;2022-09-06T10:58:47;18.60;95.80
5392;DHT22;2719;53.624;9.786;2022-09-06T11:01:22;18.60;95.70
5392;DHT22;2719;53.624;9.786;2022-09-06T11:03:51;18.70;96.30
5392;DHT22;2719;53.624;9.786;2022-09-06T11:06:20;18.70;96.50
5392;DHT22;2719;53.624;9.786;2022-09-06T11:08:53;18.90;96.70
5392;DHT22;2719;53.624;9.786;2022-09-06T11:11:23;18.90;96.70
5392;DHT22;2719;53.624;9.786;2022-09-06T11:13:54;18.90;96.20
5392;DHT22;2719;53.624;9.786;2022-09-06T11:16:23;18.90;96.50
5392;DHT22;2719;53.624;9.786;2022-09-06T11:18:54;18.90;96.10
5392;DHT22;2719;53.624;9.786;2022-09-06T11:22:05;18.90;96.10
5392;DHT22;2719;53.624;9.786;2022-09-06T11:24:59;18.90;95.90
5392;DHT22;2719;53.624;9.786;2022-09-06T11:27:34;18.90;96.00
5392;DHT22;2719;53.624;9.786;2022-09-06T11:30:04;18.90;95.70
5392;DHT22;2719;53.624;9.786;2022-09-06T11:32:35;19.00;96.10
5392;DHT22;2719;53.624;9.786;2022-09-06T11:35:05;19.10;96.00
5392;DHT22;2719;53.624;9.786;2022-09-06T11:37:36;19.10;95.60
5392;DHT22;2719;53.624;9.786;2022-09-06T11:40:14;19.10;95.60
5392;DHT22;2719;53.624;9.786;2022-09-06T11:43:16;19.00;95.40
5392;DHT22;2719;53.624;9.786;2022-09-06T11:45:45;19.00;95.50
5392;DHT22;2719;53.624;9.786;2022-09-06T11:48:35;19.00;95.40
5392;DHT22;2719;53.624;9.786;2022-09-06T11:51:08;19.00;95.20
5392;DHT22;2719;53.624;9.786;2022-09-06T11:54:05;18.90;95.50
5392;DHT22;2719;53.624;9.786;2022-09-06T11:56:39;18.90;96.20
5392;DHT22;2719;53.624;9.786;2022-09-06T11:59:17;19.00;96.80
5392;DHT22;2719;53.624;9.786;2022-09-06T12:01:59;19.00;97.40
5392;DHT22;2719;53.624;9.786;2022-09-06T12:07:28;19.00;97.80
5392;DHT22;2719;53.624;9.786;2022-09-06T12:09:55;19.00;98.50
5392;DHT22;2719;53.624;9.786;2022-09-06T12:15:26;19.00;98.10
5392;DHT22;2719;53.624;9.786;2022-09-06T12:17:54;19.00;97.50
5392;DHT22;2719;53.624;9.786;2022-09-06T12:23:41;19.00;98.50
5392;DHT22;2719;53.624;9.786;2022-09-06T12:26:09;18.80;98.00
5392;DHT22;2719;53.624;9.786;2022-09-06T12:28:46;18.80;98.00
5392;DHT22;2719;53.624;9.786;2022-09-06T12:31:26;18.80;98.20
5392;DHT22;2719;53.624;9.786;2022-09-06T12:33:53;18.90;98.40
5392;DHT22;2719;53.624;9.786;2022-09-06T12:36:24;18.80;98.30
5392;DHT22;2719;53.624;9.786;2022-09-06T12:38:55;18.90;99.30
5392;DHT22;2719;53.624;9.786;2022-09-06T12:41:22;18.90;99.10
5392;DHT22;2719;53.624;9.786;2022-09-06T12:43:49;18.90;98.20
5392;DHT22;2719;53.624;9.786;2022-09-06T12:46:16;18.90;98.20
5392;DHT22;2719;53.624;9.786;2022-09-06T12:49:01;18.90;98.20
5392;DHT22;2719;53.624;9.786;2022-09-06T12:51:28;18.80;97.90
5392;DHT22;2719;53.624;9.786;2022-09-06T12:53:57;18.90;97.80
5392;DHT22;2719;53.624;9.786;2022-09-06T12:56:25;18.90;97.70
5392;DHT22;2719;53.624;9.786;2022-09-06T12:59:09;18.90;97.60
5392;DHT22;2719;53.624;9.786;2022-09-06T13:01:38;18.90;97.40
5392;DHT22;2719;53.624;9.786;2022-09-06T13:04:13;18.90;97.60
5392;DHT22;2719;53.624;9.786;2022-09-06T13:06:45;18.90;97.00
5392;DHT22;2719;53.624;9.786;2022-09-06T13:09:14;18.90;97.10
5392;DHT22;2719;53.624;9.786;2022-09-06T13:11:43;18.90;96.90
5392;DHT22;2719;53.624;9.786;2022-09-06T13:14:16;18.90;97.10
5392;DHT22;2719;53.624;9.786;2022-09-06T13:16:47;19.00;97.00
5392;DHT22;2719;53.624;9.786;2022-09-06T13:19:18;19.00;97.10
5392;DHT22;2719;53.624;9.786;2022-09-06T13:21:54;19.00;96.90
5392;DHT22;2719;53.624;9.786;2022-09-06T13:24:22;19.10;97.10
5392;DHT22;2719;53.624;9.786;2022-09-06T13:26:50;19.20;97.00
5392;DHT22;2719;53.624;9.786;2022-09-06T13:29:28;19.20;96.80
5392;DHT22;2719;53.624;9.786;2022-09-06T13:31:57;19.20;96.50
5392;DHT22;2719;53.624;9.786;2022-09-06T13:34:28;19.20;96.40
5392;DHT22;2719;53.624;9.786;2022-09-06T13:37:00;19.20;97.10
5392;DHT22;2719;53.624;9.786;2022-09-06T13:39:29;19.20;96.80
5392;DHT22;2719;53.624;9.786;2022-09-06T13:42:00;19.20;96.60
5392;DHT22;2719;53.624;9.786;2022-09-06T13:44:28;19.20;96.90
5392;DHT22;2719;53.624;9.786;2022-09-06T13:46:55;19.20;96.80
5392;DHT22;2719;53.624;9.786;2022-09-06T13:49:22;19.20;96.90
5392;DHT22;2719;53.624;9.786;2022-09-06T13:51:51;19.20;96.90
5392;DHT22;2719;53.624;9.786;2022-09-06T13:54:18;19.20;97.00
5392;DHT22;2719;53.624;9.786;2022-09-06T13:56:47;19.20;96.90
5392;DHT22;2719;53.624;9.786;2022-09-06T13:59:14;19.20;96.80
5392;DHT22;2719;53.624;9.786;2022-09-06T14:01:43;19.20;97.10
5392;DHT22;2719;53.624;9.786;2022-09-06T14:04:14;19.20;96.80
5392;DHT22;2719;53.624;9.786;2022-09-06T14:06:41;19.20;97.00
5392;DHT22;2719;53.624;9.786;2022-09-06T14:09:08;19.20;96.70
5392;DHT22;2719;53.624;9.786;2022-09-06T14:11:35;19.20;96.50
5392;DHT22;2719;53.624;9.786;2022-09-06T14:14:02;19.20;96.50
5392;DHT22;2719;53.624;9.786;2022-09-06T14:16:29;19.20;96.80
5392;DHT22;2719;53.624;9.786;2022-09-06T14:18:56;19.30;96.70
5392;DHT22;2719;53.624;9.786;2022-09-06T14:21:23;19.30;97.10
5392;DHT22;2719;53.624;9.786;2022-09-06T14:23:51;19.30;96.90
5392;DHT22;2719;53.624;9.786;2022-09-06T14:26:19;19.30;96.60
5392;DHT22;2719;53.624;9.786;2022-09-06T14:28:47;19.40;96.80
5392;DHT22;2719;53.624;9.786;2022-09-06T14:31:15;19.40;96.40
5392;DHT22;2719;53.624;9.786;2022-09-06T14:33:42;19.40;96.40
5392;DHT22;2719;53.624;9.786;2022-09-06T14:36:10;19.40;96.50
5392;DHT22;2719;53.624;9.786;2022-09-06T14:38:38;19.30;96.20
5392;DHT22;2719;53.624;9.786;2022-09-06T14:41:06;19.40;96.30
5392;DHT22;2719;53.624;9.786;2022-09-06T14:43:35;19.40;96.30
5392;DHT22;2719;53.624;9.786;2022-09-06T14:46:03;19.40;96.60
5392;DHT22;2719;53.624;9.786;2022-09-06T14:48:31;19.40;96.70
5392;DHT22;2719;53.624;9.786;2022-09-06T14:50:58;19.50;96.80
5392;DHT22;2719;53.624;9.786;2022-09-06T14:53:26;19.50;96.60
5392;DHT22;2719;53.624;9.786;2022-09-06T14:56:00;19.50;97.50
5392;DHT22;2719;53.624;9.786;2022-09-06T14:58:29;19.50;96.70
5392;DHT22;2719;53.624;9.786;2022-09-06T15:01:08;19.50;96.50
5392;DHT22;2719;53.624;9.786;2022-09-06T15:03:36;19.50;96.30
5392;DHT22;2719;53.624;9.786;2022-09-06T15:06:03;19.50;96.60
5392;DHT22;2719;53.624;9.786;2022-09-06T15:08:29;19.60;96.40
5392;DHT22;2719;53.624;9.786;2022-09-06T15:10:56;19.60;96.30
5392;DHT22;2719;53.624;9.786;2022-09-06T15:13:23;19.60;96.50
5392;DHT22;2719;53.624;9.786;2022-09-06T15:15:51;19.70;96.80
5392;DHT22;2719;53.624;9.786;2022-09-06T15:18:19;19.70;96.40
5392;DHT22;2719;53.624;9.786;2022-09-06T15:20:45;19.70;96.20
5392;DHT22;2719;53.624;9.786;2022-09-06T15:23:12;19.70;96.50
5392;DHT22;2719;53.624;9.786;2022-09-06T15:25:44;19.80;96.70
5392;DHT22;2719;53.624;9.786;2022-09-06T15:28:11;19.90;96.90
5392;DHT22;2719;53.624;9.786;2022-09-06T15:30:38;19.90;96.90
5392;DHT22;2719;53.624;9.786;2022-09-06T15:33:05;19.90;97.10
5392;DHT22;2719;53.624;9.786;2022-09-06T15:35:36;20.00;97.20
5392;DHT22;2719;53.624;9.786;2022-09-06T15:38:03;20.10;97.10
5392;DHT22;2719;53.624;9.786;2022-09-06T15:40:30;20.10;97.00
5392;DHT22;2719;53.624;9.786;2022-09-06T15:42:57;20.40;96.80
5392;DHT22;2719;53.624;9.786;2022-09-06T15:45:24;20.50;96.10
5392;DHT22;2719;53.624;9.786;2022-09-06T15:47:52;20.70;96.30
5392;DHT22;2719;53.624;9.786;2022-09-06T15:50:19;20.80;96.50
5392;DHT22;2719;53.624;9.786;2022-09-06T15:52:47;20.90;95.70
5392;DHT22;2719;53.624;9.786;2022-09-06T15:55:13;21.10;95.70
5392;DHT22;2719;53.624;9.786;2022-09-06T15:57:58;21.20;96.10
5392;DHT22;2719;53.624;9.786;2022-09-06T16:00:24;21.30;96.60
5392;DHT22;2719;53.624;9.786;2022-09-06T16:02:51;21.40;95.10
5392;DHT22;2719;53.624;9.786;2022-09-06T16:05:18;21.40;95.20
5392;DHT22;2719;53.624;9.786;2022-09-06T16:07:44;21.50;95.10
5392;DHT22;2719;53.624;9.786;2022-09-06T16:10:12;21.40;94.20
5392;DHT22;2719;53.624;9.786;2022-09-06T16:12:39;21.30;94.20
5392;DHT22;2719;53.624;9.786;2022-09-06T16:15:07;21.30;94.70
5392;DHT22;2719;53.624;9.786;2022-09-06T16:17:34;21.40;94.30
5392;DHT22;2719;53.624;9.786;2022-09-06T16:20:01;21.40;94.20
5392;DHT22;2719;53.624;9.786;2022-09-06T16:22:29;21.30;94.10
5392;DHT22;2719;53.624;9.786;2022-09-06T16:24:55;21.30;94.00
5392;DHT22;2719;53.624;9.786;2022-09-06T16:27:23;21.20;94.00
5392;DHT22;2719;53.624;9.786;2022-09-06T16:29:50;21.30;94.70
5392;DHT22;2719;53.624;9.786;2022-09-06T16:32:17;21.20;94.10
5392;DHT22;2719;53.624;9.786;2022-09-06T16:34:43;21.20;94.30
5392;DHT22;2719;53.624;9.786;2022-09-06T16:37:11;21.10;94.30